Time;durP1;ratioP1;P1;durP2;ratioP2;P2;SDS_P1;SDS_P2;PMS_P1;PMS_P2;Temp;Humidity;BMP_temperature;BMP_pressure;BME280_temperature;BME280_humidity;BME280_pressure;Samples;Min_cycle;Max_cycle;Signal;HPM_P1;HPM_P2
2022/08/05 00:01:48;;;;;;;8.55;2.33;;;19.00;99.90;;;;;;5053808;28;20457;-67
2022/08/05 00:04:15;;;;;;;6.45;2.33;;;19.10;99.90;;;;;;5063412;28;20086;-67
2022/08/05 00:06:40;;;;;;;6.10;2.40;;;19.10;99.90;;;;;;5054733;28;20053;-67
2022/08/05 00:09:06;;;;;;;9.73;3.10;;;19.10;99.90;;;;;;5061488;28;20434;-67
2022/08/05 00:11:31;;;;;;;7.10;2.55;;;19.10;99.90;;;;;;5073509;28;20117;-67
2022/08/05 00:13:57;;;;;;;9.07;3.22;;;18.80;99.90;;;;;;5073778;28;20044;-67
2022/08/05 00:16:22;;;;;;;5.72;2.72;;;19.20;99.90;;;;;;5058941;28;20048;-67
2022/08/05 00:18:48;;;;;;;6.20;2.42;;;18.90;99.90;;;;;;5047610;28;20445;-67
2022/08/05 00:21:15;;;;;;;5.22;2.42;;;18.90;99.90;;;;;;5048737;28;20402;-67
2022/08/05 00:23:42;;;;;;;5.38;2.40;;;18.80;99.90;;;;;;5048344;28;20059;-67
2022/08/05 00:26:08;;;;;;;7.95;2.90;;;18.70;99.90;;;;;;5042605;28;20083;-66
2022/08/05 00:28:34;;;;;;;9.75;3.20;;;18.90;99.90;;;;;;5041506;28;20072;-66
2022/08/05 00:31:00;;;;;;;7.97;2.85;;;18.80;99.90;;;;;;5038372;28;20045;-67
2022/08/05 00:33:25;;;;;;;8.90;2.80;;;18.90;99.90;;;;;;5038513;28;20036;-66
2022/08/05 00:35:51;;;;;;;6.45;2.70;;;18.70;99.90;;;;;;5022413;28;20111;-66
2022/08/05 00:38:16;;;;;;;8.20;2.60;;;18.80;99.90;;;;;;5049631;28;20055;-67
2022/08/05 00:40:48;;;;;;;5.05;2.40;;;19.00;99.90;;;;;;5043053;28;20096;-67
2022/08/05 00:43:13;;;;;;;9.10;3.10;;;18.90;99.90;;;;;;5031499;28;20041;-67
2022/08/05 00:45:39;;;;;;;12.18;2.80;;;19.00;99.90;;;;;;5034832;28;20113;-67
2022/08/05 00:48:06;;;;;;;7.53;2.15;;;18.80;99.90;;;;;;5036399;28;20049;-67
2022/08/05 00:50:32;;;;;;;8.85;2.33;;;18.90;99.90;;;;;;5032761;28;20037;-67
2022/08/05 00:52:57;;;;;;;5.55;2.58;;;18.90;99.90;;;;;;5031493;28;20037;-67
2022/08/05 00:55:23;;;;;;;5.57;2.30;;;18.70;99.90;;;;;;5049659;28;20117;-67
2022/08/05 00:57:48;;;;;;;5.18;2.30;;;18.60;99.90;;;;;;5042074;28;20167;-67
2022/08/05 01:00:14;;;;;;;8.43;2.30;;;18.90;99.90;;;;;;5032402;28;20045;-67
2022/08/05 01:02:39;;;;;;;8.07;2.67;;;18.60;99.90;;;;;;5032411;28;20044;-67
2022/08/05 01:05:05;;;;;;;7.78;3.03;;;18.70;99.90;;;;;;5032755;28;20523;-66
2022/08/05 01:07:31;;;;;;;7.20;2.80;;;18.90;99.90;;;;;;5044778;28;20120;-66
2022/08/05 01:09:57;;;;;;;4.20;2.17;;;18.40;99.90;;;;;;5032440;28;20462;-66
2022/08/05 01:12:24;;;;;;;5.25;2.80;;;18.80;99.90;;;;;;5031691;28;20040;-67
2022/08/05 01:15:04;;;;;;;5.75;2.35;;;18.70;99.90;;;;;;5014930;28;20045;-66
2022/08/05 01:17:36;;;;;;;6.82;2.70;;;18.60;99.90;;;;;;5035318;28;20051;-67
2022/08/05 01:20:08;;;;;;;5.50;2.67;;;18.60;99.90;;;;;;5039535;28;20403;-67
2022/08/05 01:22:41;;;;;;;5.95;2.33;;;18.60;99.90;;;;;;5032389;28;20073;-67
2022/08/05 01:25:32;;;;;;;5.47;2.65;;;18.60;99.90;;;;;;5032207;28;20569;-66
2022/08/05 01:28:26;;;;;;;7.22;2.53;;;18.60;99.90;;;;;;5049548;28;20037;-67
2022/08/05 01:30:57;;;;;;;4.97;2.90;;;18.60;99.90;;;;;;5049152;28;20495;-66
2022/08/05 01:33:29;;;;;;;6.85;3.10;;;18.40;99.90;;;;;;5031240;28;20395;-66
2022/08/05 01:35:58;;;;;;;6.15;2.63;;;18.40;99.90;;;;;;5032001;28;20543;-66
2022/08/05 01:38:25;;;;;;;6.47;2.75;;;18.60;99.90;;;;;;5032090;28;20029;-66
2022/08/05 01:40:52;;;;;;;7.28;3.20;;;18.60;99.90;;;;;;5044678;28;20380;-66
2022/08/05 01:43:20;;;;;;;9.50;3.17;;;18.40;99.90;;;;;;5032140;28;20034;-67
2022/08/05 01:45:45;;;;;;;4.72;2.97;;;18.40;99.90;;;;;;5035361;28;20040;-67
2022/08/05 01:48:13;;;;;;;7.88;2.78;;;18.60;99.90;;;;;;5032332;28;20038;-67
2022/08/05 01:50:40;;;;;;;7.18;2.60;;;18.40;99.90;;;;;;5041020;28;20052;-67
2022/08/05 01:53:12;;;;;;;5.10;2.45;;;18.60;99.90;;;;;;5033955;28;20037;-66
2022/08/05 01:55:39;;;;;;;5.57;2.78;;;18.40;99.90;;;;;;5032206;28;20095;-66
2022/08/05 01:58:07;;;;;;;7.38;3.13;;;18.40;99.90;;;;;;5045877;28;20060;-67
2022/08/05 02:00:36;;;;;;;9.23;3.70;;;18.60;99.90;;;;;;5031081;28;20092;-67
2022/08/05 02:03:29;;;;;;;8.18;3.00;;;18.50;99.90;;;;;;5030773;28;20033;-67
2022/08/05 02:05:55;;;;;;;8.40;2.72;;;18.40;99.90;;;;;;5031159;28;20120;-67
2022/08/05 02:08:21;;;;;;;8.10;2.30;;;18.50;99.90;;;;;;5032966;28;20080;-67
2022/08/05 02:10:52;;;;;;;5.97;3.08;;;18.50;99.90;;;;;;5043733;28;20053;-67
2022/08/05 02:13:40;;;;;;;5.82;2.58;;;18.40;99.90;;;;;;5031715;28;20056;-67
2022/08/05 02:16:20;;;;;;;7.18;2.70;;;18.70;99.90;;;;;;5031706;28;20059;-67
2022/08/05 02:18:54;;;;;;;6.65;2.85;;;18.20;99.90;;;;;;5031914;28;20065;-66
2022/08/05 02:21:30;;;;;;;;;;;18.40;99.90;;;;;;5031221;28;20049;-66
2022/08/05 02:24:01;;;;;;;7.57;2.88;;;18.20;99.90;;;;;;5032777;28;19924;-66
2022/08/05 02:26:38;;;;;;;5.22;3.13;;;18.30;99.90;;;;;;5046675;28;20131;-66
2022/08/05 02:29:06;;;;;;;7.03;2.60;;;18.00;99.90;;;;;;5050789;28;20071;-66
2022/08/05 02:31:34;;;;;;;6.97;3.47;;;18.10;99.90;;;;;;5034276;28;20434;-67
2022/08/05 02:34:09;;;;;;;4.22;2.63;;;18.10;99.90;;;;;;5034189;28;20045;-67
2022/08/05 02:36:40;;;;;;;6.13;2.40;;;18.10;99.90;;;;;;5033986;28;20045;-67
2022/08/05 02:39:08;;;;;;;7.75;2.78;;;17.90;99.90;;;;;;5034286;28;20399;-67
2022/08/05 02:41:35;;;;;;;4.00;2.30;;;17.90;99.90;;;;;;5035042;28;20045;-67
2022/08/05 02:44:05;;;;;;;7.95;2.42;;;17.90;99.90;;;;;;5035532;28;20041;-67
2022/08/05 02:46:32;;;;;;;5.43;2.90;;;17.90;99.90;;;;;;5040329;28;20077;-67
2022/08/05 02:48:58;;;;;;;4.18;2.70;;;18.00;99.90;;;;;;5033709;28;20122;-67
2022/08/05 02:51:25;;;;;;;5.32;3.58;;;17.90;99.90;;;;;;5034762;28;20526;-67
2022/08/05 02:53:51;;;;;;;9.18;3.20;;;17.90;99.90;;;;;;5035225;28;20140;-67
2022/08/05 02:56:17;;;;;;;7.40;2.95;;;17.70;99.90;;;;;;5034982;28;20085;-67
2022/08/05 02:58:44;;;;;;;5.70;3.33;;;17.90;99.90;;;;;;5034839;28;20114;-67
2022/08/05 03:01:15;;;;;;;6.05;2.70;;;17.80;99.90;;;;;;5033667;28;20050;-67
2022/08/05 03:03:42;;;;;;;7.10;3.05;;;17.90;99.90;;;;;;5047701;28;20121;-67
2022/08/05 03:06:10;;;;;;;4.47;2.78;;;17.70;99.90;;;;;;5046523;28;20086;-67
2022/08/05 03:08:40;;;;;;;7.57;2.95;;;17.80;99.90;;;;;;5036335;28;20037;-67
2022/08/05 03:11:25;;;;;;;7.97;2.85;;;17.70;99.90;;;;;;5045384;28;20404;-67
2022/08/05 03:13:51;;;;;;;5.93;3.15;;;17.80;99.90;;;;;;5047932;28;20042;-67
2022/08/05 03:16:17;;;;;;;7.50;3.60;;;17.80;99.90;;;;;;5046087;28;20080;-67
2022/08/05 03:18:43;;;;;;;6.68;2.95;;;17.70;99.90;;;;;;5054332;28;20028;-67
2022/08/05 03:21:09;;;;;;;7.47;3.50;;;17.60;99.90;;;;;;5052837;28;20540;-67
2022/08/05 03:23:37;;;;;;;7.72;3.25;;;17.70;99.90;;;;;;5053002;28;20040;-67
2022/08/05 03:26:03;;;;;;;6.05;3.50;;;17.70;99.90;;;;;;5034292;28;20131;-66
2022/08/05 03:28:30;;;;;;;4.97;3.85;;;17.50;99.90;;;;;;5042958;28;20056;-67
2022/08/05 03:30:58;;;;;;;6.95;3.75;;;17.40;99.90;;;;;;5037755;28;20080;-66
2022/08/05 03:33:24;;;;;;;5.45;3.72;;;17.80;99.90;;;;;;5034513;28;20037;-67
2022/08/05 03:35:50;;;;;;;6.25;3.85;;;17.70;99.90;;;;;;5046988;28;20124;-67
2022/08/05 03:38:16;;;;;;;8.05;3.63;;;17.60;99.90;;;;;;5034327;28;20183;-67
2022/08/05 03:40:43;;;;;;;6.45;3.72;;;17.70;99.90;;;;;;5032673;28;20496;-67
2022/08/05 03:43:08;;;;;;;5.45;3.70;;;17.50;99.90;;;;;;5038254;28;20122;-67
2022/08/05 03:45:34;;;;;;;5.28;3.80;;;17.60;99.90;;;;;;5052854;28;20076;-67
2022/08/05 03:48:00;;;;;;;7.70;3.72;;;17.60;99.90;;;;;;5037433;28;20044;-67
2022/08/05 03:50:47;;;;;;;4.82;3.53;;;17.50;99.90;;;;;;5032412;28;20124;-66
2022/08/05 03:53:17;;;;;;;6.07;3.65;;;17.40;99.90;;;;;;5051249;28;20490;-66
2022/08/05 03:55:52;;;;;;;7.00;4.95;;;17.50;99.90;;;;;;5043744;28;20304;-66
2022/08/05 03:58:20;;;;;;;8.40;4.70;;;17.70;99.90;;;;;;5033516;28;20053;-67
2022/08/05 04:00:47;;;;;;;9.82;4.53;;;17.30;99.90;;;;;;5032235;28;20112;-67
2022/08/05 04:03:15;;;;;;;7.05;3.83;;;17.30;99.90;;;;;;5034122;28;20042;-67
2022/08/05 04:05:43;;;;;;;6.22;3.20;;;17.30;99.90;;;;;;5045418;28;20045;-67
2022/08/05 04:08:10;;;;;;;9.48;4.82;;;17.20;99.90;;;;;;5033509;28;20037;-67
2022/08/05 04:10:36;;;;;;;7.63;4.30;;;17.50;99.90;;;;;;5033711;28;20049;-67
2022/08/05 04:13:02;;;;;;;5.53;3.83;;;17.40;99.90;;;;;;5033366;28;20071;-67
2022/08/05 04:15:28;;;;;;;5.30;3.78;;;17.10;99.90;;;;;;5033099;28;20045;-66
2022/08/05 04:17:54;;;;;;;7.70;4.22;;;17.10;99.90;;;;;;5033231;28;20042;-66
2022/08/05 04:20:22;;;;;;;5.82;3.67;;;17.50;99.90;;;;;;5047116;28;20048;-67
2022/08/05 04:22:47;;;;;;;6.35;3.30;;;17.20;99.90;;;;;;5042071;28;20048;-67
2022/08/05 04:25:13;;;;;;;5.45;3.75;;;17.30;99.90;;;;;;5038068;28;20037;-67
2022/08/05 04:27:39;;;;;;;3.40;2.92;;;17.30;99.90;;;;;;5034861;28;20402;-67
2022/08/05 04:30:06;;;;;;;7.00;3.60;;;17.20;99.90;;;;;;5043711;28;20120;-67
2022/08/05 04:32:32;;;;;;;6.22;3.78;;;17.30;99.90;;;;;;5032904;28;20045;-66
2022/08/05 04:34:57;;;;;;;5.40;4.25;;;17.40;99.90;;;;;;5044401;28;20045;-67
2022/08/05 04:37:23;;;;;;;6.57;3.75;;;17.30;99.90;;;;;;5031417;28;20419;-66
2022/08/05 04:39:49;;;;;;;5.35;3.92;;;17.30;99.90;;;;;;5031531;28;20041;-67
2022/08/05 04:42:14;;;;;;;7.97;3.75;;;17.10;99.90;;;;;;5032858;28;20034;-67
2022/08/05 04:44:40;;;;;;;7.72;4.80;;;17.20;99.90;;;;;;5032975;28;20041;-67
2022/08/05 04:47:05;;;;;;;6.88;3.45;;;17.10;99.90;;;;;;5037518;28;20076;-67
2022/08/05 04:49:32;;;;;;;8.70;4.38;;;17.30;99.90;;;;;;5032773;28;20041;-66
2022/08/05 04:51:57;;;;;;;6.97;4.07;;;17.20;99.90;;;;;;5031208;28;20049;-67
2022/08/05 04:54:25;;;;;;;5.03;3.53;;;17.20;99.90;;;;;;5031468;28;20053;-67
2022/08/05 04:56:52;;;;;;;6.47;3.15;;;17.00;99.90;;;;;;5032421;28;20116;-67
2022/08/05 04:59:19;;;;;;;7.28;4.20;;;17.20;99.90;;;;;;5031091;28;20547;-67
2022/08/05 05:01:45;;;;;;;5.70;4.10;;;17.20;99.90;;;;;;5036424;28;20047;-66
2022/08/05 05:04:11;;;;;;;6.15;4.30;;;16.90;99.90;;;;;;5041295;28;20091;-67
2022/08/05 05:06:37;;;;;;;6.45;4.40;;;17.00;99.90;;;;;;5046773;28;20049;-67
2022/08/05 05:09:02;;;;;;;8.50;4.55;;;17.10;99.90;;;;;;5014907;28;20052;-67
2022/08/05 05:11:28;;;;;;;6.35;4.20;;;17.10;99.90;;;;;;5031099;28;20120;-67
2022/08/05 05:13:53;;;;;;;7.43;4.95;;;17.00;99.90;;;;;;5032536;28;20116;-67
2022/08/05 05:16:19;;;;;;;7.68;5.03;;;17.10;99.90;;;;;;5032454;28;20037;-67
2022/08/05 05:18:45;;;;;;;8.00;4.97;;;17.30;99.90;;;;;;5050178;28;20033;-67
2022/08/05 05:21:10;;;;;;;8.63;5.30;;;16.90;99.90;;;;;;5041359;28;20042;-67
2022/08/05 05:23:36;;;;;;;6.45;4.40;;;17.20;99.90;;;;;;5032722;28;20079;-67
2022/08/05 05:26:01;;;;;;;11.63;4.82;;;17.20;99.90;;;;;;5051117;28;20057;-67
2022/08/05 05:28:27;;;;;;;9.40;4.72;;;17.30;99.90;;;;;;5048387;28;20045;-67
2022/08/05 05:30:52;;;;;;;7.38;4.18;;;17.20;99.90;;;;;;5037994;28;20465;-67
2022/08/05 05:33:18;;;;;;;9.77;5.53;;;17.40;99.90;;;;;;5044841;28;20064;-67
2022/08/05 05:35:45;;;;;;;7.43;5.40;;;17.30;99.90;;;;;;5030736;28;20072;-67
2022/08/05 05:38:11;;;;;;;9.45;5.07;;;15.50;99.90;;;;;;5044842;28;20049;-67
2022/08/05 05:40:37;;;;;;;8.23;4.63;;;17.00;99.90;;;;;;5044062;28;20068;-67
2022/08/05 05:43:03;;;;;;;9.30;4.75;;;17.30;99.90;;;;;;5037991;28;20367;-67
2022/08/05 05:45:28;;;;;;;7.47;4.32;;;17.10;99.90;;;;;;5044031;28;20049;-67
2022/08/05 05:47:56;;;;;;;7.13;4.25;;;17.40;99.90;;;;;;5034962;28;20046;-67
2022/08/05 05:50:22;;;;;;;6.35;4.30;;;17.50;99.90;;;;;;5040290;28;20064;-67
2022/08/05 05:52:47;;;;;;;6.10;3.70;;;17.60;99.90;;;;;;5038096;28;20073;-67
2022/08/05 05:55:14;;;;;;;6.93;4.05;;;17.90;99.90;;;;;;5045309;28;20037;-67
2022/08/05 05:57:42;;;;;;;5.10;3.47;;;17.90;99.90;;;;;;5039734;28;20045;-66
2022/08/05 06:00:16;;;;;;;6.07;3.60;;;18.20;99.90;;;;;;5048881;28;20056;-67
2022/08/05 06:02:42;;;;;;;6.55;3.50;;;18.70;99.90;;;;;;5052427;28;20041;-66
2022/08/05 06:05:09;;;;;;;4.70;2.60;;;19.40;99.90;;;;;;5053986;28;20037;-67
2022/08/05 06:07:35;;;;;;;5.90;2.30;;;20.00;99.90;;;;;;5055175;28;20517;-67
2022/08/05 06:10:01;;;;;;;4.00;2.50;;;20.80;99.90;;;;;;5055061;28;20075;-67
2022/08/05 06:12:27;;;;;;;4.05;2.28;;;21.50;99.90;;;;;;5054455;28;20080;-67
2022/08/05 06:14:52;;;;;;;3.72;1.65;;;22.20;99.90;;;;;;5055566;28;20077;-67
2022/08/05 06:17:18;;;;;;;2.83;1.80;;;22.50;99.90;;;;;;5037823;28;20037;-67
2022/08/05 06:19:44;;;;;;;3.90;1.85;;;22.60;99.90;;;;;;5055453;28;20559;-67
2022/08/05 06:22:10;;;;;;;5.07;1.50;;;23.20;99.90;;;;;;5054774;28;20025;-66
2022/08/05 06:24:41;;;;;;;5.65;1.63;;;23.40;99.90;;;;;;5054437;28;20503;-68
2022/08/05 06:27:06;;;;;;;3.65;1.67;;;23.40;99.90;;;;;;5036388;28;20508;-67
2022/08/05 06:29:32;;;;;;;3.67;1.63;;;23.80;99.90;;;;;;5036231;28;20043;-67
2022/08/05 06:31:57;;;;;;;3.92;1.10;;;24.30;99.90;;;;;;5035083;28;20033;-67
2022/08/05 06:34:23;;;;;;;3.28;1.02;;;25.10;99.90;;;;;;5038087;28;20041;-67
2022/08/05 06:36:49;;;;;;;3.83;1.33;;;25.50;99.90;;;;;;5033873;28;20045;-66
2022/08/05 06:39:14;;;;;;;2.40;1.23;;;25.90;99.90;;;;;;5036129;28;20049;-66
2022/08/05 06:41:40;;;;;;;2.42;0.95;;;26.40;99.90;;;;;;5041129;28;20090;-67
2022/08/05 06:44:05;;;;;;;3.05;0.80;;;26.50;99.90;;;;;;5053742;28;20056;-67
2022/08/05 06:46:31;;;;;;;3.70;0.98;;;27.20;99.90;;;;;;5053639;28;20040;-67
2022/08/05 06:48:57;;;;;;;4.07;1.13;;;27.40;99.90;;;;;;5054929;28;20040;-67
2022/08/05 06:51:23;;;;;;;3.55;0.80;;;27.90;99.90;;;;;;5053690;28;20044;-67
2022/08/05 06:53:49;;;;;;;3.53;0.63;;;28.00;99.90;;;;;;5053820;28;20045;-67
2022/08/05 06:56:14;;;;;;;1.83;0.70;;;28.20;99.90;;;;;;5053427;28;20506;-67
2022/08/05 06:58:40;;;;;;;3.60;0.70;;;27.90;99.90;;;;;;5053231;28;20503;-67
2022/08/05 07:01:05;;;;;;;3.53;0.40;;;27.70;99.90;;;;;;5054321;28;20041;-67
2022/08/05 07:03:32;;;;;;;2.50;0.40;;;27.50;99.90;;;;;;5054601;28;20487;-67
2022/08/05 07:05:57;;;;;;;2.65;0.50;;;26.80;99.90;;;;;;5054061;28;20131;-67
2022/08/05 07:08:27;;;;;;;2.70;0.40;;;25.90;99.90;;;;;;5054696;28;20112;-67
2022/08/05 07:10:53;;;;;;;4.13;0.50;;;25.40;99.90;;;;;;5051679;28;20045;-67
2022/08/05 07:18:48;;;;;;;2.03;0.43;;;23.40;99.90;;;;;;5054263;28;20040;-67
2022/08/05 07:21:14;;;;;;;1.77;0.60;;;23.00;99.90;;;;;;5051133;28;20041;-67
2022/08/05 07:23:48;;;;;;;3.63;1.13;;;22.70;99.90;;;;;;5052396;28;20041;-66
2022/08/05 07:26:14;;;;;;;3.60;0.70;;;22.70;99.90;;;;;;5052677;28;20049;-67
2022/08/05 07:28:39;;;;;;;4.22;0.63;;;22.50;99.90;;;;;;5052321;28;20052;-65
2022/08/05 07:31:06;;;;;;;1.42;0.40;;;22.00;99.90;;;;;;5032949;28;20083;-66
2022/08/05 07:33:32;;;;;;;3.38;0.85;;;22.00;99.90;;;;;;5049765;28;20077;-66
2022/08/05 07:35:58;;;;;;;4.65;1.92;;;21.80;99.90;;;;;;5052286;28;20080;-66
2022/08/05 07:38:24;;;;;;;2.20;0.50;;;21.90;99.90;;;;;;5053783;28;20084;-66
2022/08/05 07:40:49;;;;;;;1.70;0.43;;;21.90;99.90;;;;;;5053643;28;20390;-67
2022/08/05 07:43:15;;;;;;;2.58;0.52;;;21.70;99.90;;;;;;5053706;28;20039;-67
2022/08/05 07:45:42;;;;;;;2.45;0.50;;;21.60;99.90;;;;;;5052586;28;20479;-66
2022/08/05 07:48:08;;;;;;;1.90;0.43;;;21.80;99.90;;;;;;5053803;28;20087;-66
2022/08/05 07:50:34;;;;;;;2.53;0.50;;;21.50;99.90;;;;;;5052520;28;20487;-66
2022/08/05 07:52:59;;;;;;;3.47;0.70;;;21.70;99.90;;;;;;5052022;28;20061;-66
2022/08/05 07:55:25;;;;;;;3.97;0.70;;;21.40;99.90;;;;;;5052242;28;20052;-66
2022/08/05 07:57:51;;;;;;;3.28;0.60;;;21.50;99.90;;;;;;5053424;28;20064;-66
2022/08/05 08:00:16;;;;;;;2.70;0.40;;;21.20;99.90;;;;;;5052231;28;20037;-66
2022/08/05 08:02:43;;;;;;;3.72;0.55;;;21.20;99.90;;;;;;5053662;28;20082;-66
2022/08/05 08:05:09;;;;;;;2.40;0.40;;;21.50;99.90;;;;;;5053614;28;20082;-66
2022/08/05 08:07:35;;;;;;;3.05;0.45;;;21.50;99.90;;;;;;5051762;28;20086;-66
2022/08/05 08:10:00;;;;;;;2.83;0.63;;;21.30;99.90;;;;;;5051919;28;20044;-66
2022/08/05 08:12:26;;;;;;;2.10;0.68;;;21.20;99.90;;;;;;5053158;28;20059;-66
2022/08/05 08:14:52;;;;;;;4.50;0.52;;;21.20;99.90;;;;;;5052324;28;20099;-66
2022/08/05 08:17:17;;;;;;;4.32;0.50;;;21.20;99.90;;;;;;5053200;28;20086;-66
2022/08/05 08:19:44;;;;;;;1.60;0.40;;;21.30;99.90;;;;;;5051811;28;20033;-66
2022/08/05 08:22:10;;;;;;;3.22;0.43;;;21.20;99.90;;;;;;5051420;28;20479;-66
2022/08/05 08:24:36;;;;;;;1.85;0.32;;;21.40;99.90;;;;;;5053000;28;20376;-66
2022/08/05 08:27:03;;;;;;;1.83;0.30;;;21.50;99.90;;;;;;5051676;28;20151;-66
2022/08/05 08:29:29;;;;;;;1.15;0.43;;;21.50;99.90;;;;;;5047649;28;20049;-66
2022/08/05 08:31:54;;;;;;;4.22;0.40;;;22.50;99.90;;;;;;5033320;28;20037;-66
2022/08/05 08:34:22;;;;;;;1.88;0.35;;;21.60;99.90;;;;;;5032978;28;20091;-66
2022/08/05 08:36:48;;;;;;;3.90;0.40;;;21.50;99.90;;;;;;5031256;28;20054;-66
2022/08/05 08:39:16;;;;;;;3.58;0.40;;;21.50;99.90;;;;;;5031906;28;20045;-66
2022/08/05 08:41:43;;;;;;;3.20;0.77;;;21.40;99.90;;;;;;5046284;28;20045;-66
2022/08/05 08:44:11;;;;;;;1.52;0.20;;;21.40;99.90;;;;;;5031942;28;20494;-66
2022/08/05 08:46:37;;;;;;;1.80;0.32;;;21.50;99.90;;;;;;5037478;28;20098;-66
2022/08/05 08:49:03;;;;;;;3.10;0.40;;;21.60;99.90;;;;;;5032994;28;20498;-66
2022/08/05 08:51:32;;;;;;;1.55;0.35;;;21.40;99.90;;;;;;5035485;28;20037;-66
2022/08/05 08:53:58;;;;;;;2.00;0.40;;;21.80;99.90;;;;;;5043246;28;20048;-66
2022/08/05 08:56:24;;;;;;;0.70;0.22;;;21.70;99.90;;;;;;5032796;28;20045;-66
2022/08/05 08:58:50;;;;;;;1.13;0.25;;;21.70;99.90;;;;;;5031468;28;20050;-66
2022/08/05 09:01:16;;;;;;;3.67;0.22;;;21.50;99.90;;;;;;5031257;28;20080;-66
2022/08/05 09:03:47;;;;;;;4.80;0.40;;;21.70;99.90;;;;;;5031174;28;20044;-66
2022/08/05 09:06:12;;;;;;;0.98;0.30;;;21.60;99.90;;;;;;5032415;28;20555;-66
2022/08/05 09:08:38;;;;;;;1.00;0.20;;;21.60;99.90;;;;;;5037111;28;20108;-66
2022/08/05 09:11:03;;;;;;;1.73;0.20;;;21.70;99.90;;;;;;5042037;28;20388;-66
2022/08/05 09:13:30;;;;;;;4.47;0.38;;;22.00;99.90;;;;;;5034755;28;20069;-66
2022/08/05 09:15:56;;;;;;;0.98;0.20;;;21.70;99.90;;;;;;5043602;28;20047;-66
2022/08/05 09:18:22;;;;;;;2.88;0.25;;;22.00;99.90;;;;;;5032085;28;20104;-66
2022/08/05 09:20:50;;;;;;;3.10;0.30;;;21.80;99.90;;;;;;5030846;28;20408;-66
2022/08/05 09:23:17;;;;;;;3.22;0.40;;;21.90;99.90;;;;;;5031128;28;20037;-66
2022/08/05 09:26:06;;;;;;;3.30;0.28;;;21.90;99.90;;;;;;5031107;28;20112;-66
2022/08/05 09:28:33;;;;;;;2.55;0.30;;;21.70;99.90;;;;;;5041226;28;20048;-66
2022/08/05 09:31:10;;;;;;;3.53;0.30;;;21.60;99.90;;;;;;5036412;28;20038;-66
2022/08/05 09:33:51;;;;;;;5.40;0.40;;;21.80;99.90;;;;;;5040546;28;20048;-66
2022/08/05 09:36:17;;;;;;;2.03;0.50;;;21.80;99.90;;;;;;5032056;28;20530;-66
2022/08/05 09:39:02;;;;;;;2.55;0.20;;;21.80;99.90;;;;;;5032525;28;20068;-66
2022/08/05 09:41:28;;;;;;;2.95;0.30;;;22.10;99.90;;;;;;5031912;28;20042;-66
2022/08/05 09:43:53;;;;;;;1.23;0.20;;;22.00;99.90;;;;;;5031902;28;20030;-66
2022/08/05 09:46:37;;;;;;;0.80;0.28;;;22.00;99.90;;;;;;5036589;28;20060;-66
2022/08/05 09:49:06;;;;;;;1.77;0.40;;;21.80;99.90;;;;;;5032196;28;20128;-66
2022/08/05 09:51:40;;;;;;;3.17;0.25;;;22.00;99.90;;;;;;5030409;28;20120;-66
2022/08/05 09:54:07;;;;;;;1.00;0.30;;;22.20;99.90;;;;;;5030643;28;20075;-66
2022/08/05 09:56:38;;;;;;;2.15;0.20;;;22.10;99.90;;;;;;5032099;28;20129;-66
2022/08/05 09:59:06;;;;;;;0.73;0.20;;;22.10;99.90;;;;;;5030747;28;20064;-66
2022/08/05 10:01:35;;;;;;;1.48;0.50;;;22.00;99.90;;;;;;5031863;28;20041;-66
2022/08/05 10:04:04;;;;;;;1.80;0.15;;;22.20;99.90;;;;;;5032117;28;20033;-66
2022/08/05 10:06:31;;;;;;;2.28;0.40;;;22.20;99.90;;;;;;5031624;28;20056;-66
2022/08/05 10:09:18;;;;;;;2.85;0.20;;;22.60;99.90;;;;;;5032071;28;20041;-66
2022/08/05 10:11:44;;;;;;;0.50;0.10;;;22.40;99.90;;;;;;5031754;28;20049;-66
2022/08/05 10:14:22;;;;;;;6.10;0.20;;;23.60;99.90;;;;;;5030986;28;20391;-66
2022/08/05 10:16:49;;;;;;;1.15;0.20;;;22.60;99.90;;;;;;5031489;28;20124;-66
2022/08/05 10:19:15;;;;;;;1.40;0.10;;;22.50;99.90;;;;;;5031533;28;20069;-66
2022/08/05 10:21:40;;;;;;;7.68;0.30;;;22.50;99.90;;;;;;5031851;28;20080;-66
2022/08/05 10:24:08;;;;;;;1.55;0.17;;;22.50;99.90;;;;;;5030518;28;20043;-66
2022/08/05 10:26:35;;;;;;;0.82;0.30;;;22.60;99.90;;;;;;5030543;28;20080;-66
2022/08/05 10:29:01;;;;;;;1.08;0.20;;;22.40;99.90;;;;;;5044394;28;20542;-66
2022/08/05 10:31:27;;;;;;;3.33;0.20;;;22.30;99.90;;;;;;5030205;28;20124;-66
2022/08/05 10:33:52;;;;;;;2.22;0.10;;;22.70;99.90;;;;;;5032090;28;20124;-66
2022/08/05 10:36:18;;;;;;;0.80;0.10;;;22.30;99.90;;;;;;5031579;28;20045;-66
2022/08/05 10:38:46;;;;;;;2.65;0.13;;;22.50;99.90;;;;;;5031878;28;20087;-66
2022/08/05 10:41:35;;;;;;;0.88;0.10;;;22.60;99.90;;;;;;5031784;28;20438;-66
2022/08/05 10:44:14;;;;;;;1.38;0.20;;;22.50;99.90;;;;;;5031778;28;20048;-66
2022/08/05 10:46:49;;;;;;;2.28;0.20;;;22.30;99.90;;;;;;5039433;28;20052;-66
2022/08/05 10:49:14;;;;;;;1.20;0.22;;;22.80;99.90;;;;;;5035275;28;20042;-66
2022/08/05 10:51:45;;;;;;;1.08;0.17;;;22.70;99.90;;;;;;5033569;28;20460;-66
2022/08/05 10:54:11;;;;;;;0.52;0.17;;;22.60;99.90;;;;;;5034928;28;20095;-66
2022/08/05 10:56:48;;;;;;;2.38;0.17;;;22.60;99.90;;;;;;5034657;28;20049;-66
2022/08/05 10:59:18;;;;;;;1.77;0.28;;;22.60;99.90;;;;;;5034779;28;20128;-66
2022/08/05 11:01:44;;;;;;;1.33;0.40;;;23.50;99.90;;;;;;5034927;28;20076;-66
2022/08/05 11:04:16;;;;;;;0.55;0.13;;;22.80;99.90;;;;;;5033581;28;20050;-66
2022/08/05 11:06:59;;;;;;;1.75;0.20;;;22.60;99.90;;;;;;5034616;28;20116;-66
2022/08/05 11:09:27;;;;;;;1.58;0.20;;;22.80;99.90;;;;;;5033260;28;20048;-66
2022/08/05 11:11:54;;;;;;;2.10;0.10;;;22.80;99.90;;;;;;5034529;28;20060;-66
2022/08/05 11:14:32;;;;;;;0.22;0.10;;;22.80;99.90;;;;;;5033494;28;20076;-66
2022/08/05 11:17:25;;;;;;;0.73;0.22;;;23.00;99.90;;;;;;5034271;28;20079;-66
2022/08/05 11:19:56;;;;;;;0.75;0.10;;;22.70;99.90;;;;;;5033028;28;20041;-66
2022/08/05 11:22:38;;;;;;;0.60;0.10;;;22.70;99.90;;;;;;5034594;28;20411;-66
2022/08/05 11:25:30;;;;;;;0.73;0.13;;;22.50;99.90;;;;;;5033432;28;20045;-66
2022/08/05 11:28:15;;;;;;;1.27;0.10;;;23.00;99.90;;;;;;5039448;28;20086;-66
2022/08/05 11:30:56;;;;;;;0.77;0.10;;;22.60;99.90;;;;;;5038614;28;20045;-66
2022/08/05 11:33:29;;;;;;;0.68;0.10;;;22.60;99.90;;;;;;5052994;28;20041;-66
2022/08/05 11:36:01;;;;;;;0.75;0.20;;;22.30;99.90;;;;;;5039071;28;20143;-67
2022/08/05 11:38:41;;;;;;;1.08;0.10;;;22.40;99.90;;;;;;5033149;28;20171;-66
2022/08/05 11:41:20;;;;;;;1.45;0.30;;;22.40;99.90;;;;;;5032618;28;20060;-66
2022/08/05 11:44:05;;;;;;;1.42;0.40;;;22.40;99.90;;;;;;5033192;28;20463;-66
2022/08/05 11:46:40;;;;;;;2.97;0.50;;;22.40;99.90;;;;;;5038154;28;20040;-66
2022/08/05 11:49:07;;;;;;;1.40;0.20;;;22.20;99.90;;;;;;5034183;28;20041;-66
2022/08/05 11:51:33;;;;;;;0.80;0.20;;;22.20;99.90;;;;;;5033768;28;20040;-66
2022/08/05 11:54:00;;;;;;;1.38;0.22;;;22.10;99.90;;;;;;5032717;28;20045;-66
2022/08/05 11:56:48;;;;;;;2.53;0.20;;;22.00;99.90;;;;;;5035122;28;20112;-66
2022/08/05 11:59:26;;;;;;;1.13;0.20;;;21.70;99.90;;;;;;5041093;28;20573;-66
2022/08/05 12:01:56;;;;;;;1.98;0.25;;;21.80;99.90;;;;;;5036938;28;20498;-66
2022/08/05 12:04:23;;;;;;;1.55;0.20;;;22.00;99.90;;;;;;5042577;28;20160;-66
2022/08/05 12:06:49;;;;;;;2.05;0.30;;;22.00;99.90;;;;;;5033385;28;20057;-66
2022/08/05 12:09:23;;;;;;;0.57;0.13;;;22.10;99.90;;;;;;5033422;28;20041;-66
2022/08/05 12:11:49;;;;;;;0.93;0.10;;;21.70;99.90;;;;;;5033369;28;20068;-66
2022/08/05 12:14:15;;;;;;;2.05;0.20;;;22.10;99.90;;;;;;5033370;28;20087;-66
2022/08/05 12:16:42;;;;;;;1.77;0.20;;;22.10;99.90;;;;;;5033541;28;20042;-66
2022/08/05 12:19:10;;;;;;;2.97;0.30;;;22.00;99.90;;;;;;5032371;28;20091;-66
2022/08/05 12:21:47;;;;;;;1.15;0.15;;;21.90;99.90;;;;;;5033443;28;20045;-66
2022/08/05 12:24:14;;;;;;;2.00;0.30;;;21.90;99.90;;;;;;5033560;28;20048;-66
2022/08/05 12:26:41;;;;;;;0.98;0.20;;;21.70;99.90;;;;;;5033357;28;20041;-66
2022/08/05 12:29:18;;;;;;;2.05;0.20;;;22.00;99.90;;;;;;5048279;28;20056;-66
2022/08/05 12:31:51;;;;;;;1.00;0.20;;;21.60;99.90;;;;;;5043357;28;20053;-66
2022/08/05 12:34:19;;;;;;;0.95;0.30;;;21.90;99.90;;;;;;5031839;28;20045;-66
2022/08/05 12:36:45;;;;;;;1.45;0.10;;;21.60;99.90;;;;;;5031615;28;20073;-66
2022/08/05 12:39:12;;;;;;;3.85;0.40;;;21.70;99.90;;;;;;5032907;28;20484;-66
2022/08/05 12:41:39;;;;;;;1.05;0.20;;;21.70;99.90;;;;;;5033160;28;20041;-66
2022/08/05 12:44:08;;;;;;;2.53;0.20;;;21.80;99.90;;;;;;5033233;28;20365;-66
2022/08/05 12:46:37;;;;;;;1.65;0.20;;;21.80;99.90;;;;;;5037486;28;20164;-66
2022/08/05 12:49:10;;;;;;;1.88;0.20;;;21.70;99.90;;;;;;5032786;28;20048;-66
2022/08/05 12:51:45;;;;;;;1.60;0.20;;;21.70;99.90;;;;;;5031397;28;20046;-66
2022/08/05 12:54:16;;;;;;;;;;;21.60;99.90;;;;;;5033219;28;20092;-66
2022/08/05 12:56:45;;;;;;;1.92;0.28;;;21.80;99.90;;;;;;5032832;28;19928;-66
2022/08/05 12:59:20;;;;;;;1.45;0.20;;;21.60;99.90;;;;;;5032408;28;20136;-66
2022/08/05 13:01:59;;;;;;;0.30;0.10;;;21.60;99.90;;;;;;5031184;28;20403;-66